RRR4544 EHEH-EGVN
Flight info
| Callsign | RRR4544 |
|---|---|
| Flight time | 0h 53m |
| Altitude | 24000 |
| Route | ABNED L980 LAM L179 ICTAM DCT SAWPE |
| Aircraft | A400/M-SADFGHIKRTUXY/LB1 |
Departure
| Time | 2026-04-30 19:39 |
|---|---|
| Airport | Eindhoven Airport (EHEH) |
Arrival
| Time | 2026-04-30 20:32 |
|---|---|
| Airport | RAF Brize Norton (EGVN) |
| Time | Latitude | Longitude | Altitude | Speed | Heading |
|---|---|---|---|---|---|
| 2026-04-30 19:15 | 51.45290 | 5.38463 | 88 ft | 0 kts | 125° |
| 2026-04-30 19:29 | 51.45295 | 5.38451 | 88 ft | 4 kts | 125° |
| 2026-04-30 19:29 | 51.45311 | 5.38415 | 89 ft | 4 kts | 125° |
| 2026-04-30 19:30 | 51.45323 | 5.38387 | 87 ft | 0 kts | 125° |
| 2026-04-30 19:32 | 51.45323 | 5.38391 | 87 ft | 1 kts | 109° |
| 2026-04-30 19:33 | 51.45331 | 5.38402 | 86 ft | 2 kts | 34° |
| 2026-04-30 19:33 | 51.45400 | 5.38407 | 86 ft | 10 kts | 342° |
| 2026-04-30 19:33 | 51.45448 | 5.38312 | 85 ft | 17 kts | 304° |
| 2026-04-30 19:33 | 51.45523 | 5.38142 | 89 ft | 20 kts | 306° |
| 2026-04-30 19:34 | 51.45602 | 5.37964 | 90 ft | 16 kts | 304° |
| 2026-04-30 19:34 | 51.45579 | 5.37803 | 89 ft | 17 kts | 218° |
| 2026-04-30 19:34 | 51.45417 | 5.37625 | 85 ft | 17 kts | 214° |
| 2026-04-30 19:35 | 51.45319 | 5.37518 | 85 ft | 17 kts | 215° |
| 2026-04-30 19:35 | 51.45222 | 5.37411 | 88 ft | 17 kts | 214° |
| 2026-04-30 19:35 | 51.45119 | 5.37298 | 89 ft | 19 kts | 217° |
| 2026-04-30 19:35 | 51.45007 | 5.37170 | 86 ft | 20 kts | 213° |
| 2026-04-30 19:36 | 51.44893 | 5.37044 | 88 ft | 20 kts | 215° |
| 2026-04-30 19:36 | 51.44780 | 5.36920 | 89 ft | 19 kts | 214° |
| 2026-04-30 19:36 | 51.44560 | 5.36667 | 88 ft | 16 kts | 215° |
| 2026-04-30 19:37 | 51.44462 | 5.36560 | 89 ft | 18 kts | 215° |
| 2026-04-30 19:37 | 51.44359 | 5.36436 | 89 ft | 18 kts | 216° |
| 2026-04-30 19:37 | 51.44259 | 5.36323 | 84 ft | 17 kts | 214° |
| 2026-04-30 19:37 | 51.44157 | 5.36212 | 86 ft | 19 kts | 213° |
| 2026-04-30 19:38 | 51.44045 | 5.36089 | 85 ft | 19 kts | 212° |
| 2026-04-30 19:38 | 51.43954 | 5.36141 | 89 ft | 13 kts | 123° |
| 2026-04-30 19:38 | 51.43942 | 5.36229 | 87 ft | 5 kts | 79° |
| 2026-04-30 19:38 | 51.43950 | 5.36255 | 86 ft | 5 kts | 58° |
| 2026-04-30 19:39 | 51.44013 | 5.36332 | 84 ft | 28 kts | 35° |
| 2026-04-30 19:39 | 51.44477 | 5.36863 | 92 ft | 140 kts | 33° |
| 2026-04-30 19:39 | 51.45472 | 5.37964 | 302 ft | 202 kts | 36° |
| 2026-04-30 19:39 | 51.46743 | 5.39349 | 890 ft | 214 kts | 39° |
| 2026-04-30 19:40 | 51.47928 | 5.40650 | 2619 ft | 205 kts | 41° |
| 2026-04-30 19:40 | 51.49147 | 5.41975 | 3965 ft | 219 kts | 40° |
| 2026-04-30 19:40 | 51.50467 | 5.43358 | 5279 ft | 238 kts | 36° |
| 2026-04-30 19:40 | 51.52071 | 5.44255 | 5997 ft | 254 kts | 9° |
| 2026-04-30 19:41 | 51.53815 | 5.43638 | 6296 ft | 264 kts | 332° |
| 2026-04-30 19:41 | 51.55042 | 5.41433 | 6736 ft | 276 kts | 291° |
| 2026-04-30 19:41 | 51.55229 | 5.38378 | 7862 ft | 276 kts | 255° |
| 2026-04-30 19:41 | 51.54644 | 5.35529 | 9544 ft | 264 kts | 244° |
| 2026-04-30 19:42 | 51.53925 | 5.32819 | 11095 ft | 264 kts | 243° |
| 2026-04-30 19:42 | 51.53184 | 5.30124 | 12493 ft | 269 kts | 243° |
| 2026-04-30 19:42 | 51.52416 | 5.27310 | 14017 ft | 274 kts | 243° |
| 2026-04-30 19:42 | 51.51653 | 5.24481 | 15348 ft | 279 kts | 243° |
| 2026-04-30 19:43 | 51.50894 | 5.21573 | 16707 ft | 286 kts | 247° |
| 2026-04-30 19:43 | 51.50548 | 5.18420 | 18017 ft | 299 kts | 270° |
| 2026-04-30 19:43 | 51.50882 | 5.14980 | 18838 ft | 328 kts | 282° |
| 2026-04-30 19:44 | 51.52211 | 5.07443 | 20073 ft | 366 kts | 285° |
| 2026-04-30 19:44 | 51.52920 | 5.03482 | 20936 ft | 373 kts | 285° |
| 2026-04-30 19:44 | 51.53629 | 4.99437 | 21843 ft | 378 kts | 285° |
| 2026-04-30 19:44 | 51.54335 | 4.95341 | 22763 ft | 383 kts | 285° |
| 2026-04-30 19:45 | 51.55044 | 4.91183 | 23625 ft | 386 kts | 285° |
| 2026-04-30 19:45 | 51.55755 | 4.86982 | 24116 ft | 392 kts | 285° |
| 2026-04-30 19:45 | 51.56471 | 4.82732 | 24279 ft | 395 kts | 285° |
| 2026-04-30 19:45 | 51.57188 | 4.78463 | 24292 ft | 395 kts | 284° |
| 2026-04-30 19:46 | 51.57901 | 4.74200 | 24289 ft | 395 kts | 284° |
| 2026-04-30 19:46 | 51.58612 | 4.69937 | 24291 ft | 395 kts | 284° |
| 2026-04-30 19:46 | 51.59322 | 4.65668 | 24280 ft | 395 kts | 284° |
| 2026-04-30 19:46 | 51.60033 | 4.61379 | 24283 ft | 402 kts | 284° |
| 2026-04-30 19:47 | 51.60768 | 4.56938 | 24282 ft | 419 kts | 284° |
| 2026-04-30 19:47 | 51.61268 | 4.53908 | 24282 ft | 425 kts | 284° |
| 2026-04-30 19:47 | 51.61806 | 4.47614 | 24276 ft | 427 kts | 265° |
| 2026-04-30 19:47 | 51.61191 | 4.42976 | 24271 ft | 424 kts | 247° |
| 2026-04-30 19:48 | 51.59789 | 4.38837 | 24272 ft | 421 kts | 234° |
| 2026-04-30 19:48 | 51.58138 | 4.35023 | 24268 ft | 420 kts | 232° |
| 2026-04-30 19:48 | 51.56444 | 4.31201 | 24267 ft | 420 kts | 232° |
| 2026-04-30 19:48 | 51.54724 | 4.27329 | 24267 ft | 420 kts | 232° |
| 2026-04-30 19:49 | 51.53047 | 4.23556 | 24266 ft | 420 kts | 232° |
| 2026-04-30 19:49 | 51.49648 | 4.15922 | 24272 ft | 420 kts | 232° |
| 2026-04-30 19:49 | 51.47951 | 4.12102 | 24270 ft | 421 kts | 232° |
| 2026-04-30 19:50 | 51.46267 | 4.08257 | 24268 ft | 422 kts | 234° |
| 2026-04-30 19:50 | 51.44881 | 4.04106 | 24266 ft | 425 kts | 245° |
| 2026-04-30 19:50 | 51.44044 | 3.99560 | 24262 ft | 428 kts | 258° |
| 2026-04-30 19:50 | 51.43934 | 3.94787 | 24261 ft | 430 kts | 274° |
| 2026-04-30 19:51 | 51.44441 | 3.90063 | 24262 ft | 431 kts | 282° |
| 2026-04-30 19:51 | 51.45257 | 3.85445 | 24264 ft | 431 kts | 287° |
| 2026-04-30 19:51 | 51.46231 | 3.80890 | 24263 ft | 432 kts | 289° |
| 2026-04-30 19:51 | 51.47263 | 3.76363 | 24260 ft | 432 kts | 289° |
| 2026-04-30 19:52 | 51.48300 | 3.71821 | 24264 ft | 432 kts | 289° |
| 2026-04-30 19:52 | 51.49311 | 3.67292 | 24264 ft | 432 kts | 289° |
| 2026-04-30 19:52 | 51.50294 | 3.62764 | 24264 ft | 432 kts | 288° |
| 2026-04-30 19:52 | 51.51270 | 3.58164 | 24262 ft | 432 kts | 288° |
| 2026-04-30 19:53 | 51.52222 | 3.53598 | 24254 ft | 432 kts | 287° |
| 2026-04-30 19:53 | 51.53173 | 3.48999 | 24260 ft | 431 kts | 287° |
| 2026-04-30 19:53 | 51.54114 | 3.44420 | 24255 ft | 431 kts | 287° |
| 2026-04-30 19:53 | 51.55051 | 3.39848 | 24251 ft | 431 kts | 287° |
| 2026-04-30 19:54 | 51.55987 | 3.35278 | 24260 ft | 431 kts | 287° |
| 2026-04-30 19:54 | 51.56605 | 3.32257 | 24255 ft | 431 kts | 287° |
| 2026-04-30 19:54 | 51.57856 | 3.26130 | 24261 ft | 432 kts | 287° |
| 2026-04-30 19:54 | 51.58478 | 3.23077 | 24259 ft | 432 kts | 287° |
| 2026-04-30 19:55 | 51.59411 | 3.18495 | 24255 ft | 432 kts | 287° |
| 2026-04-30 19:55 | 51.60345 | 3.13899 | 24256 ft | 432 kts | 287° |
| 2026-04-30 19:55 | 51.61576 | 3.07822 | 24250 ft | 432 kts | 287° |
| 2026-04-30 19:55 | 51.62505 | 3.03222 | 24255 ft | 432 kts | 287° |
| 2026-04-30 19:56 | 51.63433 | 2.98619 | 24252 ft | 432 kts | 287° |
| 2026-04-30 19:56 | 51.64058 | 2.95509 | 24256 ft | 432 kts | 287° |
| 2026-04-30 19:56 | 51.64969 | 2.90974 | 24252 ft | 432 kts | 287° |
| 2026-04-30 19:56 | 51.65891 | 2.86366 | 24250 ft | 432 kts | 287° |
| 2026-04-30 19:57 | 51.66812 | 2.81757 | 24243 ft | 432 kts | 287° |
| 2026-04-30 19:57 | 51.67730 | 2.77152 | 24246 ft | 433 kts | 287° |
| 2026-04-30 19:57 | 51.68650 | 2.72528 | 24253 ft | 433 kts | 286° |
| 2026-04-30 19:57 | 51.69566 | 2.67911 | 24246 ft | 432 kts | 286° |
| 2026-04-30 19:58 | 51.70479 | 2.63297 | 24253 ft | 432 kts | 287° |
| 2026-04-30 19:58 | 51.71389 | 2.58685 | 24250 ft | 432 kts | 287° |
| 2026-04-30 19:58 | 51.72298 | 2.54074 | 24249 ft | 431 kts | 287° |
| 2026-04-30 19:58 | 51.73206 | 2.49450 | 24248 ft | 432 kts | 286° |
| 2026-04-30 19:59 | 51.74111 | 2.44834 | 24246 ft | 432 kts | 286° |
| 2026-04-30 19:59 | 51.75014 | 2.40218 | 24251 ft | 432 kts | 286° |
| 2026-04-30 19:59 | 51.76817 | 2.30963 | 24246 ft | 432 kts | 286° |
| 2026-04-30 20:00 | 51.77687 | 2.26330 | 24239 ft | 431 kts | 283° |
| 2026-04-30 20:00 | 51.78122 | 2.21559 | 24244 ft | 429 kts | 271° |
| 2026-04-30 20:00 | 51.78115 | 2.16757 | 24244 ft | 428 kts | 266° |
| 2026-04-30 20:00 | 51.77951 | 2.11963 | 24246 ft | 427 kts | 263° |
| 2026-04-30 20:01 | 51.77389 | 2.02420 | 24238 ft | 427 kts | 262° |
| 2026-04-30 20:01 | 51.77072 | 1.97653 | 24238 ft | 426 kts | 262° |
| 2026-04-30 20:01 | 51.76760 | 1.92957 | 24246 ft | 426 kts | 261° |
| 2026-04-30 20:02 | 51.76151 | 1.83450 | 24243 ft | 426 kts | 262° |
| 2026-04-30 20:02 | 51.75854 | 1.78701 | 24247 ft | 425 kts | 262° |
| 2026-04-30 20:03 | 51.75264 | 1.69207 | 24242 ft | 426 kts | 262° |
| 2026-04-30 20:03 | 51.74967 | 1.64452 | 24239 ft | 425 kts | 262° |
| 2026-04-30 20:03 | 51.74669 | 1.59711 | 24245 ft | 425 kts | 262° |
| 2026-04-30 20:03 | 51.74367 | 1.54952 | 24242 ft | 425 kts | 262° |
| 2026-04-30 20:04 | 51.74064 | 1.50207 | 24238 ft | 425 kts | 262° |
| 2026-04-30 20:04 | 51.73759 | 1.45455 | 24235 ft | 425 kts | 262° |
| 2026-04-30 20:04 | 51.73452 | 1.40716 | 24240 ft | 425 kts | 261° |
| 2026-04-30 20:05 | 51.72830 | 1.31216 | 24241 ft | 425 kts | 261° |
| 2026-04-30 20:05 | 51.72517 | 1.26469 | 24236 ft | 425 kts | 261° |
| 2026-04-30 20:05 | 51.71885 | 1.16988 | 24236 ft | 425 kts | 261° |
| 2026-04-30 20:06 | 51.71567 | 1.12258 | 24233 ft | 425 kts | 261° |
| 2026-04-30 20:06 | 51.71247 | 1.07523 | 24237 ft | 425 kts | 261° |
| 2026-04-30 20:06 | 51.70924 | 1.02772 | 24234 ft | 425 kts | 261° |
| 2026-04-30 20:06 | 51.70600 | 0.98048 | 24231 ft | 425 kts | 261° |
| 2026-04-30 20:07 | 51.70274 | 0.93318 | 24226 ft | 425 kts | 260° |
| 2026-04-30 20:07 | 51.69945 | 0.88577 | 24217 ft | 425 kts | 260° |
| 2026-04-30 20:07 | 51.69283 | 0.79100 | 24214 ft | 425 kts | 260° |
| 2026-04-30 20:08 | 51.68949 | 0.74368 | 24210 ft | 425 kts | 260° |
| 2026-04-30 20:08 | 51.68613 | 0.69635 | 24211 ft | 425 kts | 260° |
| 2026-04-30 20:08 | 51.68276 | 0.64909 | 24212 ft | 425 kts | 260° |
| 2026-04-30 20:08 | 51.67940 | 0.60238 | 24212 ft | 425 kts | 260° |
| 2026-04-30 20:09 | 51.67599 | 0.55509 | 24213 ft | 425 kts | 260° |
| 2026-04-30 20:09 | 51.67255 | 0.50773 | 24213 ft | 425 kts | 260° |
| 2026-04-30 20:09 | 51.66563 | 0.41317 | 24215 ft | 425 kts | 259° |
| 2026-04-30 20:10 | 51.65864 | 0.31880 | 24212 ft | 424 kts | 259° |
| 2026-04-30 20:10 | 51.65511 | 0.27159 | 24213 ft | 424 kts | 259° |
| 2026-04-30 20:10 | 51.65156 | 0.22436 | 24212 ft | 424 kts | 259° |
| 2026-04-30 20:11 | 51.64407 | 0.13018 | 24212 ft | 423 kts | 257° |
| 2026-04-30 20:11 | 51.63943 | 0.08341 | 24211 ft | 422 kts | 256° |
| 2026-04-30 20:11 | 51.63458 | 0.03803 | 24205 ft | 401 kts | 256° |
| 2026-04-30 20:12 | 51.62495 | -0.04865 | 24254 ft | 389 kts | 255° |
| 2026-04-30 20:12 | 51.62016 | -0.09137 | 24252 ft | 387 kts | 255° |
| 2026-04-30 20:12 | 51.61565 | -0.13414 | 24256 ft | 388 kts | 256° |
| 2026-04-30 20:13 | 51.61174 | -0.17713 | 24259 ft | 388 kts | 257° |
| 2026-04-30 20:13 | 51.60816 | -0.22014 | 24263 ft | 388 kts | 258° |
| 2026-04-30 20:13 | 51.60472 | -0.26314 | 24262 ft | 388 kts | 258° |
| 2026-04-30 20:13 | 51.60129 | -0.30636 | 24183 ft | 388 kts | 258° |
| 2026-04-30 20:14 | 51.59783 | -0.34937 | 24141 ft | 389 kts | 258° |
| 2026-04-30 20:14 | 51.59431 | -0.39234 | 23921 ft | 387 kts | 257° |
| 2026-04-30 20:14 | 51.59075 | -0.43529 | 23679 ft | 386 kts | 257° |
| 2026-04-30 20:14 | 51.58722 | -0.47745 | 23409 ft | 385 kts | 257° |
| 2026-04-30 20:15 | 51.58362 | -0.51999 | 23134 ft | 383 kts | 257° |
| 2026-04-30 20:15 | 51.58003 | -0.56216 | 22863 ft | 381 kts | 257° |
| 2026-04-30 20:15 | 51.57641 | -0.60435 | 22589 ft | 380 kts | 257° |
| 2026-04-30 20:15 | 51.57279 | -0.64641 | 22162 ft | 378 kts | 257° |
| 2026-04-30 20:16 | 51.56922 | -0.68776 | 21661 ft | 376 kts | 257° |
| 2026-04-30 20:16 | 51.56563 | -0.72922 | 21145 ft | 373 kts | 257° |
| 2026-04-30 20:16 | 51.56208 | -0.77009 | 20635 ft | 370 kts | 258° |
| 2026-04-30 20:16 | 51.55851 | -0.81095 | 20131 ft | 367 kts | 258° |
| 2026-04-30 20:17 | 51.55499 | -0.85111 | 19629 ft | 364 kts | 258° |
| 2026-04-30 20:17 | 51.55147 | -0.89098 | 19128 ft | 361 kts | 258° |
| 2026-04-30 20:17 | 51.54795 | -0.93079 | 18630 ft | 358 kts | 258° |
| 2026-04-30 20:17 | 51.54444 | -0.97033 | 18099 ft | 356 kts | 258° |
| 2026-04-30 20:18 | 51.54095 | -1.00952 | 17571 ft | 354 kts | 258° |
| 2026-04-30 20:18 | 51.53746 | -1.04856 | 17080 ft | 351 kts | 257° |
| 2026-04-30 20:18 | 51.53400 | -1.08708 | 16588 ft | 348 kts | 257° |
| 2026-04-30 20:18 | 51.53054 | -1.12554 | 16100 ft | 346 kts | 258° |
| 2026-04-30 20:19 | 51.52962 | -1.16419 | 15620 ft | 348 kts | 270° |
| 2026-04-30 20:19 | 51.53100 | -1.18977 | 15318 ft | 347 kts | 272° |
| 2026-04-30 20:19 | 51.53550 | -1.24052 | 14662 ft | 345 kts | 276° |
| 2026-04-30 20:19 | 51.53981 | -1.27830 | 14163 ft | 343 kts | 277° |
| 2026-04-30 20:20 | 51.54487 | -1.31552 | 13651 ft | 342 kts | 284° |
| 2026-04-30 20:20 | 51.55573 | -1.34962 | 13136 ft | 345 kts | 304° |
| 2026-04-30 20:20 | 51.57255 | -1.37636 | 12577 ft | 334 kts | 321° |
| 2026-04-30 20:20 | 51.59067 | -1.39846 | 11220 ft | 319 kts | 322° |
| 2026-04-30 20:21 | 51.60779 | -1.41857 | 9892 ft | 291 kts | 323° |
| 2026-04-30 20:21 | 51.62359 | -1.43664 | 8561 ft | 270 kts | 323° |
| 2026-04-30 20:21 | 51.63853 | -1.45369 | 7345 ft | 255 kts | 323° |
| 2026-04-30 20:21 | 51.65264 | -1.46981 | 6172 ft | 243 kts | 322° |
| 2026-04-30 20:22 | 51.66202 | -1.49087 | 5297 ft | 243 kts | 287° |
| 2026-04-30 20:22 | 51.66801 | -1.51761 | 4655 ft | 257 kts | 286° |
| 2026-04-30 20:22 | 51.67388 | -1.54549 | 4090 ft | 270 kts | 283° |
| 2026-04-30 20:22 | 51.67945 | -1.57501 | 3639 ft | 275 kts | 282° |
| 2026-04-30 20:23 | 51.68438 | -1.60374 | 3303 ft | 260 kts | 279° |
| 2026-04-30 20:23 | 51.69016 | -1.62990 | 2874 ft | 243 kts | 298° |
| 2026-04-30 20:23 | 51.70184 | -1.64922 | 2522 ft | 238 kts | 330° |
| 2026-04-30 20:23 | 51.71682 | -1.65885 | 2235 ft | 229 kts | 349° |
| 2026-04-30 20:24 | 51.73184 | -1.65771 | 2157 ft | 212 kts | 35° |
| 2026-04-30 20:24 | 51.74014 | -1.63994 | 1932 ft | 205 kts | 75° |
| 2026-04-30 20:24 | 51.74452 | -1.61746 | 1692 ft | 213 kts | 79° |
| 2026-04-30 20:24 | 51.74769 | -1.59396 | 1525 ft | 216 kts | 81° |
| 2026-04-30 20:25 | 51.76993 | -1.57225 | 1272 ft | 208 kts | 342° |
| 2026-04-30 20:25 | 51.77906 | -1.58792 | 1164 ft | 193 kts | 284° |
| 2026-04-30 20:26 | 51.77589 | -1.62639 | 936 ft | 142 kts | 253° |
| 2026-04-30 20:26 | 51.76869 | -1.65345 | 862 ft | 128 kts | 205° |
| 2026-04-30 20:26 | 51.75990 | -1.65445 | 946 ft | 130 kts | 162° |
| 2026-04-30 20:27 | 51.74344 | -1.64220 | 994 ft | 124 kts | 113° |
| 2026-04-30 20:27 | 51.74422 | -1.61582 | 658 ft | 123 kts | 81° |
| 2026-04-30 20:28 | 51.74922 | -1.58488 | 1028 ft | 171 kts | 78° |
| 2026-04-30 20:28 | 51.77021 | -1.56759 | 1355 ft | 211 kts | 338° |
| 2026-04-30 20:29 | 51.77777 | -1.60576 | 1232 ft | 170 kts | 245° |
| 2026-04-30 20:30 | 51.76908 | -1.65549 | 1364 ft | 148 kts | 247° |
| 2026-04-30 20:30 | 51.74607 | -1.66979 | 1388 ft | 132 kts | 147° |
| 2026-04-30 20:31 | 51.74125 | -1.63070 | 741 ft | 124 kts | 76° |
| 2026-04-30 20:32 | 51.74815 | -1.59329 | 274 ft | 84 kts | 74° |
| 2026-04-30 20:32 | 51.74997 | -1.58312 | 274 ft | 28 kts | 73° |
| 2026-04-30 20:33 | 51.75095 | -1.58092 | 274 ft | 23 kts | 30° |
| 2026-04-30 20:33 | 51.75314 | -1.57906 | 277 ft | 15 kts | 28° |
| 2026-04-30 20:33 | 51.75406 | -1.57823 | 273 ft | 8 kts | 37° |
| 2026-04-30 20:34 | 51.75394 | -1.57768 | 276 ft | 6 kts | 118° |
| 2026-04-30 20:34 | 51.75381 | -1.57728 | 274 ft | 0 kts | 117° |